sensor_id;sensor_type;location;lat;lon;timestamp;P1;durP1;ratioP1;P2;durP2;ratioP2
74503;SDS011;62988;55.776;37.544;2023-06-24T15:39:16;3.60;;;2.70;;
74503;SDS011;62988;55.776;37.544;2023-06-24T15:41:45;3.73;;;2.37;;
74503;SDS011;62988;55.776;37.544;2023-06-24T15:44:11;7.60;;;3.55;;
74503;SDS011;62988;55.776;37.544;2023-06-24T15:46:36;4.97;;;2.47;;
74503;SDS011;62988;55.776;37.544;2023-06-24T15:49:01;4.97;;;3.20;;
74503;SDS011;62988;55.776;37.544;2023-06-24T15:51:27;5.73;;;2.77;;
74503;SDS011;62988;55.776;37.544;2023-06-24T15:53:52;3.87;;;2.97;;
74503;SDS011;62988;55.776;37.544;2023-06-24T15:56:17;7.30;;;3.00;;
74503;SDS011;62988;55.776;37.544;2023-06-24T15:58:43;6.43;;;3.70;;
74503;SDS011;62988;55.776;37.544;2023-06-24T16:01:08;7.03;;;4.13;;
74503;SDS011;62988;55.776;37.544;2023-06-24T16:03:33;6.37;;;2.93;;
74503;SDS011;62988;55.776;37.544;2023-06-24T16:05:59;7.53;;;2.80;;
74503;SDS011;62988;55.776;37.544;2023-06-24T16:08:24;5.67;;;2.57;;
74503;SDS011;62988;55.776;37.544;2023-06-24T16:10:51;11.57;;;3.70;;
74503;SDS011;62988;55.776;37.544;2023-06-24T16:13:16;9.67;;;3.50;;
74503;SDS011;62988;55.776;37.544;2023-06-24T16:15:41;4.80;;;3.10;;
74503;SDS011;62988;55.776;37.544;2023-06-24T16:18:07;5.50;;;2.77;;
74503;SDS011;62988;55.776;37.544;2023-06-24T16:20:32;4.63;;;2.60;;
74503;SDS011;62988;55.776;37.544;2023-06-24T16:22:57;4.93;;;2.67;;
74503;SDS011;62988;55.776;37.544;2023-06-24T16:25:23;5.43;;;2.55;;
74503;SDS011;62988;55.776;37.544;2023-06-24T16:27:48;10.73;;;5.97;;
74503;SDS011;62988;55.776;37.544;2023-06-24T16:30:14;7.30;;;3.17;;
74503;SDS011;62988;55.776;37.544;2023-06-24T16:32:39;3.88;;;2.72;;
74503;SDS011;62988;55.776;37.544;2023-06-24T16:35:04;5.10;;;2.80;;
74503;SDS011;62988;55.776;37.544;2023-06-24T16:37:32;6.55;;;3.13;;
74503;SDS011;62988;55.776;37.544;2023-06-24T16:39:57;6.13;;;3.13;;
74503;SDS011;62988;55.776;37.544;2023-06-24T16:42:23;6.50;;;3.13;;
74503;SDS011;62988;55.776;37.544;2023-06-24T16:44:48;7.57;;;2.70;;
74503;SDS011;62988;55.776;37.544;2023-06-24T16:47:13;4.30;;;2.83;;
74503;SDS011;62988;55.776;37.544;2023-06-24T16:49:39;6.07;;;3.03;;
74503;SDS011;62988;55.776;37.544;2023-06-24T16:52:04;5.22;;;3.15;;
74503;SDS011;62988;55.776;37.544;2023-06-24T16:54:29;7.65;;;3.08;;
74503;SDS011;62988;55.776;37.544;2023-06-24T16:56:55;9.83;;;3.13;;
74503;SDS011;62988;55.776;37.544;2023-06-24T16:59:20;5.22;;;3.00;;
74503;SDS011;62988;55.776;37.544;2023-06-24T17:01:46;5.15;;;2.92;;
74503;SDS011;62988;55.776;37.544;2023-06-24T17:04:11;6.18;;;2.85;;
74503;SDS011;62988;55.776;37.544;2023-06-24T17:06:36;5.43;;;2.75;;
74503;SDS011;62988;55.776;37.544;2023-06-24T17:09:02;5.22;;;2.85;;
74503;SDS011;62988;55.776;37.544;2023-06-24T17:11:31;6.72;;;3.03;;
74503;SDS011;62988;55.776;37.544;2023-06-24T17:13:56;4.97;;;2.93;;
74503;SDS011;62988;55.776;37.544;2023-06-24T17:16:21;8.80;;;3.70;;
74503;SDS011;62988;55.776;37.544;2023-06-24T17:18:47;6.63;;;4.28;;
74503;SDS011;62988;55.776;37.544;2023-06-24T17:21:12;7.70;;;3.17;;
74503;SDS011;62988;55.776;37.544;2023-06-24T17:23:37;6.30;;;2.83;;
74503;SDS011;62988;55.776;37.544;2023-06-24T17:26:03;6.50;;;2.83;;
74503;SDS011;62988;55.776;37.544;2023-06-24T17:28:28;7.33;;;3.00;;
74503;SDS011;62988;55.776;37.544;2023-06-24T17:30:54;6.20;;;3.28;;
74503;SDS011;62988;55.776;37.544;2023-06-24T17:33:19;8.35;;;3.72;;
74503;SDS011;62988;55.776;37.544;2023-06-24T17:35:44;8.53;;;3.20;;
74503;SDS011;62988;55.776;37.544;2023-06-24T17:38:10;9.40;;;3.90;;
74503;SDS011;62988;55.776;37.544;2023-06-24T17:40:35;4.67;;;2.83;;
74503;SDS011;62988;55.776;37.544;2023-06-24T17:43:01;8.88;;;2.80;;
74503;SDS011;62988;55.776;37.544;2023-06-24T17:45:27;8.55;;;3.30;;
74503;SDS011;62988;55.776;37.544;2023-06-24T17:47:52;7.47;;;3.03;;
74503;SDS011;62988;55.776;37.544;2023-06-24T17:50:20;6.90;;;3.53;;
74503;SDS011;62988;55.776;37.544;2023-06-24T17:52:45;7.38;;;3.67;;
74503;SDS011;62988;55.776;37.544;2023-06-24T17:55:11;6.43;;;3.87;;
74503;SDS011;62988;55.776;37.544;2023-06-24T17:57:36;10.13;;;3.38;;
74503;SDS011;62988;55.776;37.544;2023-06-24T18:00:01;6.67;;;3.30;;
74503;SDS011;62988;55.776;37.544;2023-06-24T18:02:28;9.25;;;3.58;;
74503;SDS011;62988;55.776;37.544;2023-06-24T18:04:54;7.43;;;3.88;;
74503;SDS011;62988;55.776;37.544;2023-06-24T18:07:19;6.60;;;3.30;;
74503;SDS011;62988;55.776;37.544;2023-06-24T18:09:45;8.68;;;3.58;;
74503;SDS011;62988;55.776;37.544;2023-06-24T18:12:10;12.07;;;3.60;;
74503;SDS011;62988;55.776;37.544;2023-06-24T18:14:36;5.68;;;3.03;;
74503;SDS011;62988;55.776;37.544;2023-06-24T18:17:01;9.70;;;3.60;;
74503;SDS011;62988;55.776;37.544;2023-06-24T18:19:27;9.13;;;3.75;;
74503;SDS011;62988;55.776;37.544;2023-06-24T18:21:52;7.33;;;3.17;;
74503;SDS011;62988;55.776;37.544;2023-06-24T18:24:17;7.67;;;3.73;;
74503;SDS011;62988;55.776;37.544;2023-06-24T18:26:44;5.22;;;2.78;;
74503;SDS011;62988;55.776;37.544;2023-06-24T18:29:09;9.38;;;3.40;;
74503;SDS011;62988;55.776;37.544;2023-06-24T18:31:34;10.03;;;3.90;;
74503;SDS011;62988;55.776;37.544;2023-06-24T18:34:01;6.78;;;3.83;;
74503;SDS011;62988;55.776;37.544;2023-06-24T18:36:27;10.33;;;3.53;;
74503;SDS011;62988;55.776;37.544;2023-06-24T18:38:52;8.00;;;3.75;;
74503;SDS011;62988;55.776;37.544;2023-06-24T18:41:18;8.70;;;3.60;;
74503;SDS011;62988;55.776;37.544;2023-06-24T18:43:43;6.10;;;3.28;;
74503;SDS011;62988;55.776;37.544;2023-06-24T18:46:08;7.73;;;3.80;;
74503;SDS011;62988;55.776;37.544;2023-06-24T18:48:33;7.73;;;3.77;;
74503;SDS011;62988;55.776;37.544;2023-06-24T18:50:59;7.95;;;3.17;;
74503;SDS011;62988;55.776;37.544;2023-06-24T18:53:24;7.43;;;4.17;;
74503;SDS011;62988;55.776;37.544;2023-06-24T18:55:50;7.45;;;3.40;;
74503;SDS011;62988;55.776;37.544;2023-06-24T18:58:15;10.65;;;4.20;;
74503;SDS011;62988;55.776;37.544;2023-06-24T19:00:40;6.97;;;3.90;;
74503;SDS011;62988;55.776;37.544;2023-06-24T19:03:06;7.45;;;3.65;;
74503;SDS011;62988;55.776;37.544;2023-06-24T19:05:31;6.53;;;3.50;;
74503;SDS011;62988;55.776;37.544;2023-06-24T19:07:58;6.18;;;3.83;;
74503;SDS011;62988;55.776;37.544;2023-06-24T19:10:23;6.15;;;3.83;;
74503;SDS011;62988;55.776;37.544;2023-06-24T19:12:48;9.57;;;3.53;;
74503;SDS011;62988;55.776;37.544;2023-06-24T19:15:17;6.45;;;3.25;;
74503;SDS011;62988;55.776;37.544;2023-06-24T19:17:42;6.73;;;3.30;;
74503;SDS011;62988;55.776;37.544;2023-06-24T19:20:08;5.10;;;3.50;;
74503;SDS011;62988;55.776;37.544;2023-06-24T19:22:33;6.80;;;4.38;;
74503;SDS011;62988;55.776;37.544;2023-06-24T19:24:58;8.83;;;3.70;;
74503;SDS011;62988;55.776;37.544;2023-06-24T19:27:24;9.70;;;3.90;;
74503;SDS011;62988;55.776;37.544;2023-06-24T19:29:49;7.37;;;4.07;;
74503;SDS011;62988;55.776;37.544;2023-06-24T19:32:15;5.57;;;3.35;;
74503;SDS011;62988;55.776;37.544;2023-06-24T19:34:40;7.90;;;3.80;;
74503;SDS011;62988;55.776;37.544;2023-06-24T19:37:06;8.90;;;4.37;;
74503;SDS011;62988;55.776;37.544;2023-06-24T19:39:32;8.70;;;3.80;;
74503;SDS011;62988;55.776;37.544;2023-06-24T19:41:57;7.32;;;4.57;;
74503;SDS011;62988;55.776;37.544;2023-06-24T19:44:24;11.93;;;4.40;;
74503;SDS011;62988;55.776;37.544;2023-06-24T19:46:49;9.60;;;4.40;;
74503;SDS011;62988;55.776;37.544;2023-06-24T19:49:14;7.83;;;4.10;;
74503;SDS011;62988;55.776;37.544;2023-06-24T19:51:40;7.43;;;4.20;;
74503;SDS011;62988;55.776;37.544;2023-06-24T19:54:05;8.77;;;4.13;;
74503;SDS011;62988;55.776;37.544;2023-06-24T19:56:30;11.30;;;4.77;;
74503;SDS011;62988;55.776;37.544;2023-06-24T19:58:56;9.47;;;4.63;;
74503;SDS011;62988;55.776;37.544;2023-06-24T20:01:21;8.90;;;4.57;;
74503;SDS011;62988;55.776;37.544;2023-06-24T20:03:46;13.90;;;4.57;;
74503;SDS011;62988;55.776;37.544;2023-06-24T20:06:12;8.03;;;4.50;;
74503;SDS011;62988;55.776;37.544;2023-06-24T20:08:37;11.85;;;4.40;;
74503;SDS011;62988;55.776;37.544;2023-06-24T20:11:02;7.93;;;4.47;;
74503;SDS011;62988;55.776;37.544;2023-06-24T20:13:28;6.53;;;4.00;;
74503;SDS011;62988;55.776;37.544;2023-06-24T20:15:53;10.67;;;4.67;;
74503;SDS011;62988;55.776;37.544;2023-06-24T20:18:18;8.00;;;4.30;;
74503;SDS011;62988;55.776;37.544;2023-06-24T20:20:44;6.57;;;3.80;;
74503;SDS011;62988;55.776;37.544;2023-06-24T20:23:09;6.70;;;3.80;;
74503;SDS011;62988;55.776;37.544;2023-06-24T20:25:35;6.93;;;3.65;;
74503;SDS011;62988;55.776;37.544;2023-06-24T20:28:00;7.85;;;4.05;;
74503;SDS011;62988;55.776;37.544;2023-06-24T20:30:26;8.25;;;4.22;;
74503;SDS011;62988;55.776;37.544;2023-06-24T20:32:51;7.07;;;3.33;;
74503;SDS011;62988;55.776;37.544;2023-06-24T20:35:16;8.18;;;4.10;;
74503;SDS011;62988;55.776;37.544;2023-06-24T20:37:42;6.13;;;4.40;;
74503;SDS011;62988;55.776;37.544;2023-06-24T20:40:08;8.25;;;3.92;;
74503;SDS011;62988;55.776;37.544;2023-06-24T20:42:33;7.15;;;4.30;;
74503;SDS011;62988;55.776;37.544;2023-06-24T20:44:59;6.32;;;4.00;;
74503;SDS011;62988;55.776;37.544;2023-06-24T20:47:24;14.77;;;8.60;;
74503;SDS011;62988;55.776;37.544;2023-06-24T20:49:49;18.20;;;9.87;;
74503;SDS011;62988;55.776;37.544;2023-06-24T20:52:15;8.27;;;4.83;;
74503;SDS011;62988;55.776;37.544;2023-06-24T20:54:40;6.33;;;3.73;;
74503;SDS011;62988;55.776;37.544;2023-06-24T20:57:05;6.60;;;4.40;;
74503;SDS011;62988;55.776;37.544;2023-06-24T20:59:31;7.93;;;4.40;;
74503;SDS011;62988;55.776;37.544;2023-06-24T21:01:56;8.33;;;4.50;;
74503;SDS011;62988;55.776;37.544;2023-06-24T21:04:21;8.33;;;3.93;;
74503;SDS011;62988;55.776;37.544;2023-06-24T21:06:47;8.00;;;4.50;;
74503;SDS011;62988;55.776;37.544;2023-06-24T21:09:12;7.20;;;4.27;;
74503;SDS011;62988;55.776;37.544;2023-06-24T21:11:38;5.73;;;3.87;;
74503;SDS011;62988;55.776;37.544;2023-06-24T21:14:03;8.57;;;4.50;;
74503;SDS011;62988;55.776;37.544;2023-06-24T21:16:28;14.13;;;4.87;;
74503;SDS011;62988;55.776;37.544;2023-06-24T21:18:53;8.53;;;4.67;;
74503;SDS011;62988;55.776;37.544;2023-06-24T21:21:19;15.67;;;4.67;;
74503;SDS011;62988;55.776;37.544;2023-06-24T21:23:44;9.90;;;4.67;;
74503;SDS011;62988;55.776;37.544;2023-06-24T21:26:10;8.00;;;4.43;;
74503;SDS011;62988;55.776;37.544;2023-06-24T21:28:35;10.93;;;5.37;;
74503;SDS011;62988;55.776;37.544;2023-06-24T21:31:00;9.57;;;5.27;;
74503;SDS011;62988;55.776;37.544;2023-06-24T21:33:26;9.20;;;4.90;;
74503;SDS011;62988;55.776;37.544;2023-06-24T21:35:51;8.00;;;4.67;;
74503;SDS011;62988;55.776;37.544;2023-06-24T21:38:16;8.07;;;4.77;;
74503;SDS011;62988;55.776;37.544;2023-06-24T21:40:41;9.20;;;4.40;;
74503;SDS011;62988;55.776;37.544;2023-06-24T21:43:07;7.67;;;4.33;;
74503;SDS011;62988;55.776;37.544;2023-06-24T21:45:32;9.87;;;4.77;;
74503;SDS011;62988;55.776;37.544;2023-06-24T21:47:57;10.20;;;4.67;;
74503;SDS011;62988;55.776;37.544;2023-06-24T21:50:23;9.52;;;4.78;;
74503;SDS011;62988;55.776;37.544;2023-06-24T21:52:48;8.63;;;4.72;;
74503;SDS011;62988;55.776;37.544;2023-06-24T21:55:14;12.47;;;5.53;;
74503;SDS011;62988;55.776;37.544;2023-06-24T21:57:39;8.17;;;5.27;;
74503;SDS011;62988;55.776;37.544;2023-06-24T22:00:05;9.17;;;5.20;;
74503;SDS011;62988;55.776;37.544;2023-06-24T22:02:32;11.68;;;5.50;;
74503;SDS011;62988;55.776;37.544;2023-06-24T22:04:57;19.10;;;6.57;;
74503;SDS011;62988;55.776;37.544;2023-06-24T22:07:22;13.70;;;5.33;;
74503;SDS011;62988;55.776;37.544;2023-06-24T22:09:48;9.70;;;5.20;;
74503;SDS011;62988;55.776;37.544;2023-06-24T22:12:13;13.17;;;5.10;;
74503;SDS011;62988;55.776;37.544;2023-06-24T22:14:38;10.97;;;5.43;;
74503;SDS011;62988;55.776;37.544;2023-06-24T22:17:03;9.23;;;5.20;;
74503;SDS011;62988;55.776;37.544;2023-06-24T22:19:29;14.33;;;5.23;;
74503;SDS011;62988;55.776;37.544;2023-06-24T22:21:54;7.60;;;4.67;;
74503;SDS011;62988;55.776;37.544;2023-06-24T22:24:19;8.23;;;5.33;;
74503;SDS011;62988;55.776;37.544;2023-06-24T22:26:45;13.27;;;5.83;;
74503;SDS011;62988;55.776;37.544;2023-06-24T22:29:10;11.60;;;5.73;;
74503;SDS011;62988;55.776;37.544;2023-06-24T22:31:35;10.40;;;5.50;;
74503;SDS011;62988;55.776;37.544;2023-06-24T22:34:01;15.97;;;6.43;;
74503;SDS011;62988;55.776;37.544;2023-06-24T22:36:26;14.03;;;6.10;;
74503;SDS011;62988;55.776;37.544;2023-06-24T22:38:51;14.37;;;5.87;;
74503;SDS011;62988;55.776;37.544;2023-06-24T22:41:16;15.70;;;6.27;;
74503;SDS011;62988;55.776;37.544;2023-06-24T22:43:42;12.23;;;6.07;;
74503;SDS011;62988;55.776;37.544;2023-06-24T22:46:07;14.47;;;6.50;;
74503;SDS011;62988;55.776;37.544;2023-06-24T22:48:32;11.27;;;6.47;;
74503;SDS011;62988;55.776;37.544;2023-06-24T22:50:58;13.73;;;5.70;;
74503;SDS011;62988;55.776;37.544;2023-06-24T22:53:25;10.15;;;5.53;;
74503;SDS011;62988;55.776;37.544;2023-06-24T22:55:50;13.57;;;5.73;;
74503;SDS011;62988;55.776;37.544;2023-06-24T22:58:15;15.30;;;6.40;;
74503;SDS011;62988;55.776;37.544;2023-06-24T23:00:41;14.20;;;6.60;;
74503;SDS011;62988;55.776;37.544;2023-06-24T23:03:06;10.80;;;6.23;;
74503;SDS011;62988;55.776;37.544;2023-06-24T23:05:31;16.30;;;6.75;;
74503;SDS011;62988;55.776;37.544;2023-06-24T23:07:57;11.10;;;6.13;;
74503;SDS011;62988;55.776;37.544;2023-06-24T23:10:22;16.50;;;6.95;;
74503;SDS011;62988;55.776;37.544;2023-06-24T23:12:48;14.82;;;6.75;;
74503;SDS011;62988;55.776;37.544;2023-06-24T23:15:14;11.15;;;6.75;;
74503;SDS011;62988;55.776;37.544;2023-06-24T23:17:39;12.60;;;6.55;;
74503;SDS011;62988;55.776;37.544;2023-06-24T23:20:05;11.15;;;6.32;;
74503;SDS011;62988;55.776;37.544;2023-06-24T23:22:30;14.10;;;6.55;;
74503;SDS011;62988;55.776;37.544;2023-06-24T23:24:56;13.95;;;6.63;;
74503;SDS011;62988;55.776;37.544;2023-06-24T23:27:22;11.88;;;6.45;;
74503;SDS011;62988;55.776;37.544;2023-06-24T23:29:49;15.18;;;6.32;;
74503;SDS011;62988;55.776;37.544;2023-06-24T23:32:15;13.68;;;6.68;;
74503;SDS011;62988;55.776;37.544;2023-06-24T23:34:41;20.92;;;6.65;;
74503;SDS011;62988;55.776;37.544;2023-06-24T23:37:07;22.73;;;7.93;;
74503;SDS011;62988;55.776;37.544;2023-06-24T23:39:32;12.57;;;6.38;;
74503;SDS011;62988;55.776;37.544;2023-06-24T23:41:58;10.55;;;6.32;;
74503;SDS011;62988;55.776;37.544;2023-06-24T23:44:23;13.27;;;5.90;;
74503;SDS011;62988;55.776;37.544;2023-06-24T23:46:49;17.42;;;7.75;;
74503;SDS011;62988;55.776;37.544;2023-06-24T23:49:14;12.50;;;6.43;;
74503;SDS011;62988;55.776;37.544;2023-06-24T23:51:39;17.57;;;7.60;;
74503;SDS011;62988;55.776;37.544;2023-06-24T23:54:05;16.63;;;6.87;;
74503;SDS011;62988;55.776;37.544;2023-06-24T23:56:30;12.53;;;6.40;;
74503;SDS011;62988;55.776;37.544;2023-06-24T23:58:56;11.35;;;6.05;;
